Linwood, New York
Current Conditions -  °F | °C
As of 2:54 PM on Tuesday 21 Oct 2014 (Local Time) from KROC Reporting Station
Broken Clouds Broken Clouds  
Wind Chill: 55°   Ceiling: 1900
Heat Index: 55°   Visibility: 10mi
Dew Point: 50°   Wind: 3mph
Humidity: 83%   Direction: 30°NNE
Pressure: 29.87"   Gusts: NA
Location:  42.89°N, 77.95°W
Report Text: KROC 211854Z 03003KT 10SM SCT007 BKN019 BKN040 13/10 A2987 RMK AO2 RAB16E50 SLP118 SHRA VC S P0000 T01280100
Loading
Personal Weather Stations






























Interactive Weather Map
Tropical Storm Tracking
New forecast layout! Learn more

10-Day Weather Forecast

Advertisements
Track Severe Weather on mobile